createdAt,value
2022-11-29T00:01:38.212Z,7.10
2022-11-29T00:04:08.482Z,7.00
2022-11-29T00:06:37.254Z,6.80
2022-11-29T00:09:09.484Z,6.60
2022-11-29T00:11:56.713Z,6.40
2022-11-29T00:14:26.142Z,6.20
2022-11-29T00:16:56.206Z,6.10
2022-11-29T00:19:26.216Z,5.90
2022-11-29T00:21:54.671Z,5.80
2022-11-29T00:24:23.332Z,5.70
2022-11-29T00:26:51.753Z,5.60
2022-11-29T00:29:20.423Z,5.60
2022-11-29T00:31:48.816Z,5.60
2022-11-29T00:34:17.272Z,5.60
2022-11-29T00:36:47.079Z,5.50
2022-11-29T00:39:16.395Z,5.50
2022-11-29T00:41:44.943Z,5.40
2022-11-29T00:44:19.686Z,5.40
2022-11-29T00:46:48.783Z,5.30
2022-11-29T00:49:17.418Z,5.20
2022-11-29T00:51:47.546Z,5.10
2022-11-29T00:54:16.008Z,5.10
2022-11-29T00:56:44.477Z,5.00
2022-11-29T00:59:12.965Z,4.90
2022-11-29T01:01:41.464Z,4.90
2022-11-29T01:04:10.125Z,4.90
2022-11-29T01:06:38.528Z,4.90
2022-11-29T01:09:08.343Z,5.00
2022-11-29T01:11:36.905Z,5.00
2022-11-29T01:14:05.650Z,5.10
2022-11-29T01:16:34.488Z,5.10
2022-11-29T01:19:03.349Z,5.10
2022-11-29T01:21:32.115Z,5.10
2022-11-29T01:24:01.613Z,5.10
2022-11-29T01:26:32.125Z,5.10
2022-11-29T01:29:00.618Z,5.10
2022-11-29T01:31:30.885Z,5.20
2022-11-29T01:34:01.380Z,5.20
2022-11-29T01:36:30.159Z,5.30
2022-11-29T01:39:01.249Z,5.30
2022-11-29T01:41:32.638Z,5.30
2022-11-29T01:44:03.510Z,5.30
2022-11-29T01:46:34.486Z,5.30
2022-11-29T01:49:06.233Z,5.30
2022-11-29T01:51:36.025Z,5.30
2022-11-29T01:54:05.173Z,5.30
2022-11-29T01:56:36.213Z,5.30
2022-11-29T01:59:07.833Z,5.30
2022-11-29T02:01:36.733Z,5.30
2022-11-29T02:04:06.121Z,5.30
2022-11-29T02:06:34.840Z,5.30
2022-11-29T02:09:03.333Z,5.30
2022-11-29T02:12:00.141Z,5.30
2022-11-29T02:14:41.248Z,5.30
2022-11-29T02:17:17.724Z,5.30
2022-11-29T02:20:13.705Z,5.30
2022-11-29T02:22:48.334Z,5.30
2022-11-29T02:25:29.120Z,5.30
2022-11-29T02:28:30.188Z,5.30
2022-11-29T02:31:11.835Z,5.30
2022-11-29T02:33:59.201Z,5.40
2022-11-29T02:36:52.461Z,5.40
2022-11-29T02:39:44.626Z,5.30
2022-11-29T02:42:54.362Z,5.30
2022-11-29T02:45:37.537Z,5.40
2022-11-29T02:48:17.112Z,5.40
2022-11-29T02:50:53.734Z,5.40
2022-11-29T02:53:28.388Z,5.40
2022-11-29T02:56:00.791Z,5.40
2022-11-29T02:58:35.140Z,5.40
2022-11-29T03:01:10.619Z,5.40
2022-11-29T03:03:42.292Z,5.40
2022-11-29T03:06:18.033Z,5.40
2022-11-29T03:08:52.849Z,5.40
2022-11-29T03:11:28.016Z,5.40
2022-11-29T03:14:05.300Z,5.40
2022-11-29T03:16:43.100Z,5.40
2022-11-29T03:19:30.796Z,5.40
2022-11-29T03:22:10.887Z,5.40
2022-11-29T03:24:44.181Z,5.40
2022-11-29T03:27:14.854Z,5.40
2022-11-29T03:29:49.492Z,5.40
2022-11-29T03:32:21.983Z,5.30
2022-11-29T03:34:57.815Z,5.30
2022-11-29T03:37:31.643Z,5.30
2022-11-29T03:40:04.949Z,5.30
2022-11-29T03:42:37.393Z,5.30
2022-11-29T03:45:09.485Z,5.30
2022-11-29T03:47:43.150Z,5.30
2022-11-29T03:50:15.717Z,5.30
2022-11-29T03:52:50.528Z,5.20
2022-11-29T03:55:33.238Z,5.20
2022-11-29T03:58:19.300Z,5.20
2022-11-29T04:01:03.697Z,5.20
2022-11-29T04:03:58.825Z,5.20
2022-11-29T04:06:38.584Z,5.20
2022-11-29T04:09:28.192Z,5.10
2022-11-29T04:12:28.642Z,5.20
2022-11-29T04:15:15.676Z,5.20
2022-11-29T04:18:12.999Z,5.20
2022-11-29T04:21:02.503Z,5.10
2022-11-29T04:23:58.865Z,5.20
2022-11-29T04:26:45.832Z,5.20
2022-11-29T04:29:21.597Z,5.20
2022-11-29T04:32:04.765Z,5.20
2022-11-29T04:34:58.366Z,5.20
2022-11-29T04:37:45.953Z,5.20
2022-11-29T04:40:27.796Z,5.20
2022-11-29T04:43:07.485Z,5.20
2022-11-29T04:46:13.078Z,5.30
2022-11-29T04:48:55.353Z,5.30
2022-11-29T04:51:38.111Z,5.20
2022-11-29T04:54:12.133Z,5.20
2022-11-29T04:56:44.437Z,5.20
2022-11-29T04:59:20.461Z,5.20
2022-11-29T05:01:59.091Z,5.20
2022-11-29T05:04:33.330Z,5.20
2022-11-29T05:07:04.802Z,5.20
2022-11-29T05:09:42.193Z,5.20
2022-11-29T05:12:15.839Z,5.30
2022-11-29T05:14:56.344Z,5.40
2022-11-29T05:17:32.881Z,5.50
2022-11-29T05:20:23.384Z,5.60
2022-11-29T05:23:05.658Z,5.80
2022-11-29T05:25:41.256Z,5.90
2022-11-29T05:28:12.628Z,6.00
2022-11-29T05:31:06.655Z,6.00
2022-11-29T05:33:49.783Z,6.10
2022-11-29T05:36:26.846Z,6.20
2022-11-29T05:39:06.570Z,6.40
2022-11-29T05:41:51.973Z,6.50
2022-11-29T05:44:25.632Z,6.50
2022-11-29T05:46:56.901Z,6.40
2022-11-29T05:49:34.713Z,6.40
2022-11-29T05:52:22.274Z,6.50
2022-11-29T05:55:00.362Z,6.60
2022-11-29T05:57:35.601Z,6.60
2022-11-29T06:00:05.775Z,6.70
2022-11-29T06:02:44.255Z,6.70
2022-11-29T06:05:17.282Z,6.80
2022-11-29T06:07:51.741Z,6.80
2022-11-29T06:10:22.465Z,6.80
2022-11-29T06:13:00.878Z,6.90
2022-11-29T06:16:08.874Z,7.00
2022-11-29T06:19:13.019Z,7.00
2022-11-29T06:21:45.737Z,7.00
2022-11-29T06:24:27.674Z,6.90
2022-11-29T06:27:12.913Z,6.70
2022-11-29T06:29:45.945Z,6.40
2022-11-29T06:32:22.735Z,5.90
2022-11-29T06:34:59.190Z,5.60
2022-11-29T06:37:31.309Z,5.30
2022-11-29T06:40:00.174Z,5.10
2022-11-29T06:42:28.610Z,4.90
2022-11-29T06:44:57.373Z,4.80
2022-11-29T06:47:30.132Z,4.70
2022-11-29T06:50:06.652Z,4.60
2022-11-29T06:52:41.225Z,4.60
2022-11-29T06:55:18.280Z,4.50
2022-11-29T06:57:57.069Z,4.40
2022-11-29T07:00:28.149Z,4.40
2022-11-29T07:03:07.683Z,4.30
2022-11-29T07:05:38.320Z,4.30
2022-11-29T07:08:10.017Z,4.30
2022-11-29T07:10:40.781Z,4.30
2022-11-29T07:13:11.218Z,4.30
2022-11-29T07:15:40.681Z,4.20
2022-11-29T07:18:18.849Z,4.20
2022-11-29T07:20:56.203Z,4.20
2022-11-29T07:23:31.164Z,4.20
2022-11-29T07:26:10.143Z,4.10
2022-11-29T07:28:47.244Z,4.10
2022-11-29T07:31:21.826Z,4.10
2022-11-29T07:33:57.284Z,4.10
2022-11-29T07:36:35.639Z,4.10
2022-11-29T07:39:15.152Z,4.10
2022-11-29T07:41:49.415Z,4.10
2022-11-29T07:44:26.678Z,4.20
2022-11-29T07:46:55.145Z,4.20
2022-11-29T07:49:23.621Z,4.10
2022-11-29T07:51:55.486Z,4.10
2022-11-29T07:54:24.200Z,4.10
2022-11-29T07:56:52.619Z,4.10
2022-11-29T07:59:21.124Z,4.10
2022-11-29T08:01:49.603Z,4.30
2022-11-29T08:04:18.057Z,4.30
2022-11-29T08:06:46.586Z,4.30
2022-11-29T08:09:16.305Z,4.30
2022-11-29T08:11:44.850Z,4.20
2022-11-29T08:14:13.245Z,4.20
2022-11-29T08:16:41.761Z,4.10
2022-11-29T08:19:10.304Z,4.10
2022-11-29T08:21:38.776Z,4.10
2022-11-29T08:24:07.497Z,4.20
2022-11-29T08:26:37.254Z,4.20
2022-11-29T08:29:05.678Z,4.30
2022-11-29T08:31:34.126Z,4.30
2022-11-29T08:34:02.536Z,4.20
2022-11-29T08:36:30.946Z,4.20
2022-11-29T08:39:08.673Z,4.20
2022-11-29T08:41:39.295Z,4.20
2022-11-29T08:44:08.018Z,4.10
2022-11-29T08:46:54.057Z,4.00
2022-11-29T08:49:22.622Z,4.00
2022-11-29T08:51:53.197Z,4.00
2022-11-29T08:54:20.834Z,4.00
2022-11-29T08:57:23.683Z,4.00
2022-11-29T08:59:39.009Z,3.90
2022-11-29T09:02:07.785Z,4.00
2022-11-29T09:04:36.339Z,4.00
2022-11-29T09:07:04.801Z,4.10
2022-11-29T09:09:33.224Z,4.20
2022-11-29T09:12:02.987Z,4.20
2022-11-29T09:14:31.464Z,4.30
2022-11-29T09:16:59.849Z,4.30
2022-11-29T09:19:28.342Z,4.30
2022-11-29T09:21:56.899Z,4.30
2022-11-29T09:24:25.348Z,4.40
2022-11-29T09:26:53.813Z,4.50
2022-11-29T09:29:23.598Z,4.40
2022-11-29T09:31:52.100Z,4.40
2022-11-29T09:34:20.549Z,4.40
2022-11-29T09:36:48.957Z,4.40
2022-11-29T09:39:17.480Z,4.40
2022-11-29T09:42:07.657Z,4.50
2022-11-29T09:44:45.130Z,4.50
2022-11-29T09:47:23.611Z,4.60
2022-11-29T09:50:13.466Z,4.60
2022-11-29T09:52:51.540Z,4.70
2022-11-29T09:55:48.539Z,4.80
2022-11-29T09:58:20.793Z,4.80
2022-11-29T10:00:52.153Z,4.80
2022-11-29T10:03:25.579Z,4.70
2022-11-29T10:05:58.590Z,4.70
2022-11-29T10:08:33.151Z,4.70
2022-11-29T10:11:12.801Z,4.70
2022-11-29T10:13:45.708Z,4.70
2022-11-29T10:16:20.373Z,4.80
2022-11-29T10:18:52.688Z,4.70
2022-11-29T10:21:23.909Z,4.70
2022-11-29T10:23:55.430Z,4.70
2022-11-29T10:26:25.899Z,4.70
2022-11-29T10:28:58.016Z,4.70
2022-11-29T10:31:29.810Z,4.70
2022-11-29T10:34:01.623Z,4.70
2022-11-29T10:36:34.593Z,4.70
2022-11-29T10:39:09.969Z,4.80
2022-11-29T10:41:41.498Z,4.80
2022-11-29T10:44:13.868Z,4.80
2022-11-29T10:46:43.679Z,4.70
2022-11-29T10:49:14.834Z,4.70
2022-11-29T10:51:43.347Z,4.80
2022-11-29T10:54:21.705Z,4.80
2022-11-29T10:56:50.257Z,4.80
2022-11-29T10:59:23.272Z,4.80
2022-11-29T11:01:53.528Z,4.70
2022-11-29T11:04:28.045Z,4.60
2022-11-29T11:06:58.385Z,4.50
2022-11-29T11:09:31.374Z,4.60
2022-11-29T11:12:01.609Z,4.60
2022-11-29T11:14:33.031Z,4.70
2022-11-29T11:17:21.483Z,4.70
2022-11-29T11:19:57.119Z,4.80
2022-11-29T11:22:26.491Z,4.80
2022-11-29T11:25:00.436Z,4.80
2022-11-29T11:27:33.795Z,4.80
2022-11-29T11:30:03.467Z,4.80
2022-11-29T11:32:33.414Z,4.90
2022-11-29T11:35:03.181Z,5.00
2022-11-29T11:37:32.949Z,5.00
2022-11-29T11:40:19.433Z,4.90
2022-11-29T11:42:48.319Z,4.90
2022-11-29T11:45:38.762Z,4.70
2022-11-29T11:48:14.509Z,4.70
2022-11-29T11:50:45.692Z,4.70
2022-11-29T11:53:21.866Z,4.60
2022-11-29T11:55:57.271Z,4.50
2022-11-29T11:58:26.294Z,4.50
2022-11-29T12:01:03.995Z,4.40
2022-11-29T12:03:39.146Z,4.30
2022-11-29T12:06:26.094Z,4.40
2022-11-29T12:08:57.138Z,4.40
2022-11-29T12:11:26.082Z,4.40
2022-11-29T12:13:56.924Z,4.40
2022-11-29T12:16:29.683Z,4.40
2022-11-29T12:19:04.486Z,4.40
2022-11-29T12:21:36.070Z,4.40
2022-11-29T12:24:10.126Z,4.50
2022-11-29T12:26:57.602Z,4.50
2022-11-29T12:29:30.041Z,4.50
2022-11-29T12:32:08.352Z,4.50
2022-11-29T12:34:50.264Z,4.50
2022-11-29T12:37:24.077Z,4.60
2022-11-29T12:39:58.620Z,4.60
2022-11-29T12:42:37.326Z,4.60
2022-11-29T12:45:36.354Z,4.60
2022-11-29T12:48:14.696Z,4.60
2022-11-29T12:50:53.636Z,4.50
2022-11-29T12:53:41.075Z,4.50
2022-11-29T12:56:16.512Z,4.50
2022-11-29T12:58:58.472Z,4.50
2022-11-29T13:01:34.321Z,4.50
2022-11-29T13:04:08.771Z,4.50
2022-11-29T13:06:42.826Z,4.50
2022-11-29T13:09:27.323Z,4.50
2022-11-29T13:11:59.171Z,4.50
2022-11-29T13:14:48.464Z,4.50
2022-11-29T13:17:28.591Z,4.50
2022-11-29T13:19:58.666Z,4.40
2022-11-29T13:22:32.899Z,4.50
2022-11-29T13:25:05.264Z,4.40
2022-11-29T13:27:37.696Z,4.40
2022-11-29T13:30:07.833Z,4.40
2022-11-29T13:32:37.775Z,4.40
2022-11-29T13:35:09.601Z,4.40
2022-11-29T13:37:47.477Z,4.30
2022-11-29T13:40:26.363Z,4.40
2022-11-29T13:43:01.222Z,4.40
2022-11-29T13:45:35.428Z,4.50
2022-11-29T13:48:34.626Z,4.40
2022-11-29T13:51:27.993Z,4.50
2022-11-29T13:53:59.489Z,4.60
2022-11-29T13:56:32.885Z,4.70
2022-11-29T13:59:02.312Z,4.70
2022-11-29T14:01:30.792Z,4.80
2022-11-29T14:04:07.959Z,4.80
2022-11-29T14:06:37.491Z,4.70
2022-11-29T14:09:35.794Z,4.70
2022-11-29T14:12:07.499Z,4.70
2022-11-29T14:14:40.808Z,4.70
2022-11-29T14:17:36.913Z,4.70
2022-11-29T14:20:51.308Z,4.60
2022-11-29T14:23:35.969Z,4.60
2022-11-29T14:26:29.154Z,4.50
2022-11-29T14:28:59.154Z,4.50
2022-11-29T14:31:55.427Z,4.40
2022-11-29T14:34:36.115Z,4.30
2022-11-29T14:37:23.929Z,4.40
2022-11-29T14:39:54.390Z,4.50
2022-11-29T14:42:31.217Z,4.50
2022-11-29T14:45:01.585Z,4.50
2022-11-29T14:47:32.615Z,4.50
2022-11-29T14:50:04.096Z,4.50
2022-11-29T14:52:34.892Z,4.50
2022-11-29T14:55:09.877Z,4.50
2022-11-29T14:58:18.122Z,4.40
2022-11-29T15:01:10.690Z,4.40
2022-11-29T15:03:49.409Z,4.40
2022-11-29T15:06:26.403Z,4.40
2022-11-29T15:08:59.982Z,4.30
2022-11-29T15:11:53.069Z,4.30
2022-11-29T15:14:29.395Z,4.30
2022-11-29T15:17:16.365Z,4.30
2022-11-29T15:20:10.039Z,4.30
2022-11-29T15:22:46.948Z,4.30
2022-11-29T15:25:17.605Z,4.20
2022-11-29T15:27:56.462Z,4.20
2022-11-29T15:30:34.760Z,4.30
2022-11-29T15:33:05.826Z,4.40
2022-11-29T15:35:35.413Z,4.40
2022-11-29T15:38:04.349Z,4.30
2022-11-29T15:40:37.134Z,4.40
2022-11-29T15:43:16.181Z,4.40
2022-11-29T15:45:49.453Z,4.40
2022-11-29T15:48:20.288Z,4.40
2022-11-29T15:50:57.059Z,4.40
2022-11-29T15:53:29.867Z,4.40
2022-11-29T15:55:59.878Z,4.40
2022-11-29T15:58:29.545Z,4.40
2022-11-29T16:00:59.979Z,4.40
2022-11-29T16:03:30.894Z,4.40
2022-11-29T16:06:04.901Z,4.30
2022-11-29T16:08:37.600Z,4.40
2022-11-29T16:11:07.182Z,4.40
2022-11-29T16:13:40.438Z,4.40
2022-11-29T16:16:15.389Z,4.50
2022-11-29T16:18:45.948Z,4.50
2022-11-29T16:21:26.430Z,4.50
2022-11-29T16:23:55.603Z,4.50
2022-11-29T16:26:25.542Z,4.60
2022-11-29T16:28:56.387Z,4.60
2022-11-29T16:31:34.187Z,4.60
2022-11-29T16:34:08.655Z,4.70
2022-11-29T16:36:37.494Z,4.60
2022-11-29T16:39:08.117Z,4.60
2022-11-29T16:41:37.650Z,4.60
2022-11-29T16:44:07.674Z,4.60
2022-11-29T16:46:41.442Z,4.60
2022-11-29T16:49:33.506Z,4.70
2022-11-29T16:52:02.617Z,4.70
2022-11-29T16:54:34.132Z,4.70
2022-11-29T16:57:05.933Z,4.60
2022-11-29T16:59:35.371Z,4.60
2022-11-29T17:02:09.719Z,4.60
2022-11-29T17:04:38.147Z,4.60
2022-11-29T17:07:08.230Z,4.60
2022-11-29T17:09:36.814Z,4.60
2022-11-29T17:12:05.429Z,4.60
2022-11-29T17:14:34.044Z,4.60
2022-11-29T17:17:03.907Z,4.60
2022-11-29T17:19:32.501Z,4.60
2022-11-29T17:22:00.936Z,4.60
2022-11-29T17:24:29.350Z,4.60
2022-11-29T17:26:57.745Z,4.50
2022-11-29T17:29:26.559Z,4.50
2022-11-29T17:31:55.217Z,4.50
2022-11-29T17:34:25.214Z,4.50
2022-11-29T17:36:53.648Z,4.50
2022-11-29T17:39:22.684Z,4.50
2022-11-29T17:41:51.081Z,4.50
2022-11-29T17:44:19.492Z,4.50
2022-11-29T17:46:47.983Z,4.50
2022-11-29T17:49:18.662Z,4.50
2022-11-29T17:51:53.076Z,4.50
2022-11-29T17:54:22.397Z,4.50
2022-11-29T17:56:51.501Z,4.50
2022-11-29T17:59:20.500Z,4.50
2022-11-29T18:01:49.061Z,4.50
2022-11-29T18:04:18.817Z,4.50
2022-11-29T18:06:50.177Z,4.50
2022-11-29T18:09:19.615Z,4.60
2022-11-29T18:11:50.690Z,4.60
2022-11-29T18:14:21.344Z,4.60
2022-11-29T18:16:50.199Z,4.50
2022-11-29T18:19:22.134Z,4.50
2022-11-29T18:21:52.536Z,4.50
2022-11-29T18:24:20.965Z,4.50
2022-11-29T18:26:49.549Z,4.50
2022-11-29T18:29:18.224Z,4.50
2022-11-29T18:31:47.137Z,4.50
2022-11-29T18:34:16.187Z,4.50
2022-11-29T18:36:46.100Z,4.50
2022-11-29T18:39:17.505Z,4.40
2022-11-29T18:41:48.406Z,4.40
2022-11-29T18:44:18.916Z,4.40
2022-11-29T18:46:47.910Z,4.40
2022-11-29T18:49:17.926Z,4.40
2022-11-29T18:51:46.883Z,4.40
2022-11-29T18:54:17.638Z,4.40
2022-11-29T18:56:47.337Z,4.40
2022-11-29T18:59:17.809Z,4.40
2022-11-29T19:01:48.295Z,4.40
2022-11-29T19:04:18.590Z,4.40
2022-11-29T19:06:47.674Z,4.40
2022-11-29T19:09:19.327Z,4.40
2022-11-29T19:11:48.696Z,4.40
2022-11-29T19:14:17.372Z,4.40
2022-11-29T19:16:47.399Z,4.40
2022-11-29T19:19:15.805Z,4.40
2022-11-29T19:21:44.248Z,4.40
2022-11-29T19:24:15.145Z,4.40
2022-11-29T19:26:46.429Z,4.40
2022-11-29T19:29:15.575Z,4.40
2022-11-29T19:31:44.234Z,4.40
2022-11-29T19:34:12.746Z,4.40
2022-11-29T19:36:43.341Z,4.40
2022-11-29T19:39:13.153Z,4.40
2022-11-29T19:41:44.806Z,4.40
2022-11-29T19:44:13.589Z,4.40
2022-11-29T19:46:43.611Z,4.40
2022-11-29T19:49:12.308Z,4.30
2022-11-29T19:51:40.890Z,4.30
2022-11-29T19:54:10.399Z,4.30
2022-11-29T19:56:39.680Z,4.30
2022-11-29T19:59:09.989Z,4.30
2022-11-29T20:01:41.728Z,4.30
2022-11-29T20:04:11.411Z,4.30
2022-11-29T20:06:41.690Z,4.30
2022-11-29T20:09:10.286Z,4.30
2022-11-29T20:11:39.224Z,4.40
2022-11-29T20:14:09.587Z,4.40
2022-11-29T20:16:39.165Z,4.40
2022-11-29T20:19:11.965Z,4.50
2022-11-29T20:21:43.719Z,4.60
2022-11-29T20:24:12.976Z,4.60
2022-11-29T20:26:43.148Z,4.60
2022-11-29T20:29:13.558Z,4.50
2022-11-29T20:31:49.027Z,4.50
2022-11-29T20:34:20.304Z,4.50
2022-11-29T20:37:16.147Z,4.50
2022-11-29T20:39:48.041Z,4.50
2022-11-29T20:42:45.004Z,4.50
2022-11-29T20:45:16.504Z,4.40
2022-11-29T20:47:51.261Z,4.40
2022-11-29T20:50:23.595Z,4.40
2022-11-29T20:53:05.230Z,4.50
2022-11-29T20:55:34.472Z,4.40
2022-11-29T20:58:03.133Z,4.40
2022-11-29T21:00:33.097Z,4.40
2022-11-29T21:03:02.107Z,4.40
2022-11-29T21:05:30.969Z,4.40
2022-11-29T21:07:59.710Z,4.40
2022-11-29T21:10:28.593Z,4.40
2022-11-29T21:12:57.281Z,4.40
2022-11-29T21:15:26.361Z,4.40
2022-11-29T21:17:56.927Z,4.40
2022-11-29T21:20:27.030Z,4.40
2022-11-29T21:23:01.853Z,4.40
2022-11-29T21:25:39.053Z,4.40
2022-11-29T21:28:12.630Z,4.50
2022-11-29T21:30:41.950Z,4.40
2022-11-29T21:33:12.706Z,4.40
2022-11-29T21:35:41.492Z,4.30
2022-11-29T21:38:16.204Z,4.20
2022-11-29T21:40:44.675Z,4.20
2022-11-29T21:43:14.195Z,4.10
2022-11-29T21:45:42.647Z,4.10
2022-11-29T21:48:26.340Z,4.00
2022-11-29T21:50:56.387Z,4.00
2022-11-29T21:53:24.895Z,4.00
2022-11-29T21:55:57.985Z,4.00
2022-11-29T21:58:26.553Z,4.00
2022-11-29T22:00:55.282Z,4.00
2022-11-29T22:03:25.125Z,4.00
2022-11-29T22:05:53.613Z,4.10
2022-11-29T22:08:22.163Z,4.20
2022-11-29T22:10:51.124Z,4.20
2022-11-29T22:13:19.499Z,4.70
2022-11-29T22:15:47.969Z,5.60
2022-11-29T22:18:16.437Z,6.30
2022-11-29T22:20:49.652Z,6.90
2022-11-29T22:23:18.214Z,7.50
2022-11-29T22:25:46.729Z,7.80
2022-11-29T22:28:15.174Z,7.90
2022-11-29T22:30:43.580Z,7.90
2022-11-29T22:33:13.541Z,7.70
2022-11-29T22:35:44.316Z,7.50
2022-11-29T22:38:14.113Z,7.40
2022-11-29T22:40:42.553Z,7.30
2022-11-29T22:43:10.955Z,7.30
2022-11-29T22:45:39.373Z,7.30
2022-11-29T22:48:07.960Z,7.40
2022-11-29T22:50:36.679Z,7.50
2022-11-29T22:53:05.326Z,7.60
2022-11-29T22:55:35.520Z,7.70
2022-11-29T22:58:04.522Z,7.90
2022-11-29T23:00:42.269Z,8.10
2022-11-29T23:03:11.042Z,8.10
2022-11-29T23:05:40.366Z,8.00
2022-11-29T23:08:09.288Z,8.00
2022-11-29T23:10:39.656Z,8.00
2022-11-29T23:13:08.501Z,8.00
2022-11-29T23:15:37.279Z,8.00
2022-11-29T23:18:06.532Z,7.80
2022-11-29T23:20:35.150Z,7.80
2022-11-29T23:23:03.639Z,7.90
2022-11-29T23:25:32.088Z,7.90
2022-11-29T23:28:01.879Z,7.80
2022-11-29T23:30:30.429Z,7.80
2022-11-29T23:32:58.886Z,7.70
2022-11-29T23:35:27.510Z,7.90
2022-11-29T23:37:55.903Z,8.00
2022-11-29T23:40:24.297Z,8.00
2022-11-29T23:42:52.981Z,7.90
2022-11-29T23:45:22.726Z,7.80
2022-11-29T23:47:51.199Z,7.70
2022-11-29T23:50:19.610Z,7.50
2022-11-29T23:52:53.827Z,7.50
2022-11-29T23:55:22.373Z,7.40
2022-11-29T23:57:51.124Z,7.30
